EDDT/TXL METAR and TAF weather

Enter ICAO airport designator
Station Type Date Time Source
EDDT METAR 2019/12/06 03:50 UTC NOAA

EDDT 060350Z 20007KT 170V240 CAVOK 00/M03 Q1012 NOSIG


Station Type Date Time Source
EDDT Decoded METAR 2019/12/06 03:50 UTC NOAA

Berlin-Tegel, Germany (EDDT) 52-34N 013-19E 37M
Dec 05, 2019 - 10:50 PM EST / 2019.12.06 0350 UTC
Wind: from the SSW (200 degrees) at 8 MPH (7 KT) (direction variable):0
Visibility: greater than 7 mile(s):0
Temperature: 32 F (0 C)
Windchill: 24 F (-4 C):1
Dew Point: 26 F (-3 C)
Relative Humidity: 80%
Pressure (altimeter): 29.88 in. Hg (1012 hPa)
ob: EDDT 060350Z 20007KT 170V240 CAVOK 00/M03 Q1012 NOSIG
cycle: 4

Station Type Date Time Source
EDDT TAF 2019/12/05 18:27 UTC NOAA

TAF EDDT 051700Z 0518/0618 20008KT CAVOK
BECMG 0603/0606 21013KT
TEMPO 0612/0618 22015G25KT 4000 -RADZ BKN012

Example: see airport list